Archival Weather

Chicago O'Hare International

Chicago, Illinois (KORD)

Report from: Sunday, September 3, 2023 1:51 PM CDT
Current time: Sunday, July 14, 2024 6:30 AM CDT

Current weather – Weather history – Daily summaries
Weather forecast

Temperature33.3°C (91.9°F)
Heat index33.2°C (91.7°F)
Dew point15.6°C (60.1°F)
Winds 13 kts (6.7 m/s, 15 mph) West-Southwest (240°)
Wind gusts 24 kts (12.3 m/s, 27.6 mph)
Visibility10 mi. (16.1 km)
Clouds Few clouds 19,000 ft. (5,791 m)
Altimeter29.94 in.Hg (1014 mB)
Relative humidity35 %
Density altitude2,327 ft. (709 m)
Sea-level pressure101.3 kPa (1013 mB, 29.92 in.Hg)
Remarks Automated weather observing station with precipitation discriminator
Flight conditions Visual Meteorological Conditions
Raw dataKORD 031851Z 24013G24KT 10SM FEW190 33/16 A2994 RMK AO2 SLP133 T03330156
An error has occurred. This application may no longer respond until reloaded. Reload 🗙